sensor_id;sensor_type;location;lat;lon;timestamp;pressure;altitude;pressure_sealevel;temperature;humidity
23643;BME280;11998;55.788;37.572;2022-09-09T00:00:56;99822.75;;;7.51;100.00
23643;BME280;11998;55.788;37.572;2022-09-09T00:02:08;99818.41;;;7.47;100.00
23643;BME280;11998;55.788;37.572;2022-09-09T00:03:25;99825.47;;;7.35;100.00
23643;BME280;11998;55.788;37.572;2022-09-09T00:08:19;99821.97;;;7.33;100.00
23643;BME280;11998;55.788;37.572;2022-09-09T00:09:27;99828.09;;;7.34;100.00
23643;BME280;11998;55.788;37.572;2022-09-09T00:10:30;99830.69;;;7.42;100.00
23643;BME280;11998;55.788;37.572;2022-09-09T00:16:40;99827.13;;;7.55;100.00
23643;BME280;11998;55.788;37.572;2022-09-09T00:21:26;99832.47;;;7.36;100.00
23643;BME280;11998;55.788;37.572;2022-09-09T00:22:30;99827.22;;;7.33;100.00
23643;BME280;11998;55.788;37.572;2022-09-09T00:23:38;99834.25;;;7.28;100.00
23643;BME280;11998;55.788;37.572;2022-09-09T00:26:14;99833.34;;;7.39;100.00
23643;BME280;11998;55.788;37.572;2022-09-09T00:28:41;99832.44;;;7.43;100.00
23643;BME280;11998;55.788;37.572;2022-09-09T00:29:51;99834.22;;;7.47;100.00
23643;BME280;11998;55.788;37.572;2022-09-09T00:30:55;99837.69;;;7.52;100.00
23643;BME280;11998;55.788;37.572;2022-09-09T00:32:04;99834.19;;;7.50;100.00
23643;BME280;11998;55.788;37.572;2022-09-09T00:33:13;99833.31;;;7.48;100.00
23643;BME280;11998;55.788;37.572;2022-09-09T00:34:20;99838.56;;;7.52;100.00
23643;BME280;11998;55.788;37.572;2022-09-09T00:35:34;99832.44;;;7.49;100.00
23643;BME280;11998;55.788;37.572;2022-09-09T00:36:37;99840.34;;;7.50;100.00
23643;BME280;11998;55.788;37.572;2022-09-09T00:37:38;99845.59;;;7.53;100.00
23643;BME280;11998;55.788;37.572;2022-09-09T00:38:47;99841.22;;;7.51;100.00
23643;BME280;11998;55.788;37.572;2022-09-09T00:39:49;99842.09;;;7.50;100.00
23643;BME280;11998;55.788;37.572;2022-09-09T00:41:20;99844.78;;;7.34;100.00
23643;BME280;11998;55.788;37.572;2022-09-09T00:42:58;99838.63;;;7.39;100.00
23643;BME280;11998;55.788;37.572;2022-09-09T00:47:46;99851.84;;;7.17;100.00
23643;BME280;11998;55.788;37.572;2022-09-09T00:53:35;99860.66;;;7.10;100.00
23643;BME280;11998;55.788;37.572;2022-09-09T00:56:20;99864.19;;;6.98;100.00
23643;BME280;11998;55.788;37.572;2022-09-09T00:57:28;99863.28;;;7.05;100.00
23643;BME280;11998;55.788;37.572;2022-09-09T00:58:28;99864.16;;;7.01;100.00
23643;BME280;11998;55.788;37.572;2022-09-09T01:00:51;99870.28;;;7.16;100.00
23643;BME280;11998;55.788;37.572;2022-09-09T01:01:53;99866.78;;;7.17;100.00
23643;BME280;11998;55.788;37.572;2022-09-09T01:04:32;99872.94;;;7.08;100.00
23643;BME280;11998;55.788;37.572;2022-09-09T01:05:53;99868.53;;;7.15;100.00
23643;BME280;11998;55.788;37.572;2022-09-09T01:07:16;99869.44;;;7.12;100.00
23643;BME280;11998;55.788;37.572;2022-09-09T01:09:32;99866.75;;;7.18;100.00
23643;BME280;11998;55.788;37.572;2022-09-09T01:10:43;99868.53;;;7.21;100.00
23643;BME280;11998;55.788;37.572;2022-09-09T01:12:11;99874.66;;;7.24;100.00
23643;BME280;11998;55.788;37.572;2022-09-09T01:13:26;99872.91;;;7.26;100.00
23643;BME280;11998;55.788;37.572;2022-09-09T01:15:38;99871.16;;;7.22;100.00
23643;BME280;11998;55.788;37.572;2022-09-09T01:16:40;99865.00;;;7.17;100.00
23643;BME280;11998;55.788;37.572;2022-09-09T01:18:48;99866.78;;;7.11;100.00
23643;BME280;11998;55.788;37.572;2022-09-09T01:21:27;99866.78;;;7.03;100.00
23643;BME280;11998;55.788;37.572;2022-09-09T01:22:44;99873.81;;;6.92;100.00
23643;BME280;11998;55.788;37.572;2022-09-09T01:25:11;99879.13;;;6.96;100.00
23643;BME280;11998;55.788;37.572;2022-09-09T01:27:24;99873.84;;;6.89;100.00
23643;BME280;11998;55.788;37.572;2022-09-09T01:28:27;99872.94;;;6.93;100.00
23643;BME280;11998;55.788;37.572;2022-09-09T01:29:28;99884.34;;;6.93;100.00
23643;BME280;11998;55.788;37.572;2022-09-09T01:30:29;99872.06;;;6.92;100.00
23643;BME280;11998;55.788;37.572;2022-09-09T01:31:39;99879.97;;;6.94;100.00
23643;BME280;11998;55.788;37.572;2022-09-09T01:32:45;99893.16;;;6.86;100.00
23643;BME280;11998;55.788;37.572;2022-09-09T01:33:47;99890.50;;;6.91;100.00
23643;BME280;11998;55.788;37.572;2022-09-09T01:34:47;99887.00;;;6.93;100.00
23643;BME280;11998;55.788;37.572;2022-09-09T01:35:59;99887.00;;;6.89;100.00
23643;BME280;11998;55.788;37.572;2022-09-09T01:37:08;99894.03;;;6.90;100.00
23643;BME280;11998;55.788;37.572;2022-09-09T01:38:10;99893.16;;;6.86;100.00
23643;BME280;11998;55.788;37.572;2022-09-09T01:39:11;99886.13;;;6.90;100.00
23643;BME280;11998;55.788;37.572;2022-09-09T01:40:12;99892.28;;;6.87;100.00
23643;BME280;11998;55.788;37.572;2022-09-09T01:41:13;99891.41;;;6.82;100.00
23643;BME280;11998;55.788;37.572;2022-09-09T01:42:15;99896.69;;;6.84;100.00
23643;BME280;11998;55.788;37.572;2022-09-09T01:43:16;99897.53;;;6.86;100.00
23643;BME280;11998;55.788;37.572;2022-09-09T01:44:17;99900.16;;;6.90;100.00
23643;BME280;11998;55.788;37.572;2022-09-09T01:45:19;99893.13;;;6.92;100.00
23643;BME280;11998;55.788;37.572;2022-09-09T01:46:22;99895.75;;;6.94;100.00
23643;BME280;11998;55.788;37.572;2022-09-09T01:47:22;99898.44;;;6.95;100.00
23643;BME280;11998;55.788;37.572;2022-09-09T01:48:24;99895.78;;;6.97;100.00
23643;BME280;11998;55.788;37.572;2022-09-09T01:49:25;99898.41;;;6.98;100.00
23643;BME280;11998;55.788;37.572;2022-09-09T01:50:26;99901.06;;;6.97;100.00
23643;BME280;11998;55.788;37.572;2022-09-09T01:51:26;99898.41;;;7.00;100.00
23643;BME280;11998;55.788;37.572;2022-09-09T01:52:27;99896.66;;;6.99;100.00
23643;BME280;11998;55.788;37.572;2022-09-09T01:53:28;99908.97;;;6.95;100.00
23643;BME280;11998;55.788;37.572;2022-09-09T01:54:31;99900.16;;;7.02;100.00
23643;BME280;11998;55.788;37.572;2022-09-09T01:55:42;99901.94;;;7.08;100.00
23643;BME280;11998;55.788;37.572;2022-09-09T02:00:43;99912.47;;;6.96;100.00
23643;BME280;11998;55.788;37.572;2022-09-09T02:03:05;99908.94;;;7.03;100.00
23643;BME280;11998;55.788;37.572;2022-09-09T02:04:27;99927.38;;;7.00;100.00
23643;BME280;11998;55.788;37.572;2022-09-09T02:05:40;99903.66;;;7.03;100.00
23643;BME280;11998;55.788;37.572;2022-09-09T02:06:43;99908.94;;;7.00;100.00
23643;BME280;11998;55.788;37.572;2022-09-09T02:07:48;99912.44;;;6.94;100.00
23643;BME280;11998;55.788;37.572;2022-09-09T02:08:50;99908.06;;;6.92;100.00
23643;BME280;11998;55.788;37.572;2022-09-09T02:09:58;99918.59;;;6.92;100.00
23643;BME280;11998;55.788;37.572;2022-09-09T02:11:15;99918.59;;;6.86;100.00
23643;BME280;11998;55.788;37.572;2022-09-09T02:12:19;99913.34;;;6.83;100.00
23643;BME280;11998;55.788;37.572;2022-09-09T02:13:22;99920.34;;;6.81;100.00
23643;BME280;11998;55.788;37.572;2022-09-09T02:14:26;99920.38;;;6.82;100.00
23643;BME280;11998;55.788;37.572;2022-09-09T02:16:44;99922.13;;;6.88;100.00
23643;BME280;11998;55.788;37.572;2022-09-09T02:17:49;99921.22;;;6.89;100.00
23643;BME280;11998;55.788;37.572;2022-09-09T02:19:11;99923.88;;;6.76;100.00
23643;BME280;11998;55.788;37.572;2022-09-09T02:20:14;99922.13;;;6.72;100.00
23643;BME280;11998;55.788;37.572;2022-09-09T02:21:16;99924.72;;;6.66;100.00
23643;BME280;11998;55.788;37.572;2022-09-09T02:22:22;99924.72;;;6.53;100.00
23643;BME280;11998;55.788;37.572;2022-09-09T02:23:24;99927.34;;;6.51;100.00
23643;BME280;11998;55.788;37.572;2022-09-09T02:24:27;99931.69;;;6.44;100.00
23643;BME280;11998;55.788;37.572;2022-09-09T02:25:29;99927.31;;;6.42;100.00
23643;BME280;11998;55.788;37.572;2022-09-09T02:26:31;99932.59;;;6.42;100.00
23643;BME280;11998;55.788;37.572;2022-09-09T02:27:34;99934.34;;;6.37;100.00
23643;BME280;11998;55.788;37.572;2022-09-09T02:28:36;99929.06;;;6.37;100.00
23643;BME280;11998;55.788;37.572;2022-09-09T02:29:42;99935.22;;;6.39;100.00
23643;BME280;11998;55.788;37.572;2022-09-09T02:30:45;99932.59;;;6.42;100.00
23643;BME280;11998;55.788;37.572;2022-09-09T02:31:49;99931.69;;;6.43;100.00
23643;BME280;11998;55.788;37.572;2022-09-09T02:32:52;99934.34;;;6.43;100.00
23643;BME280;11998;55.788;37.572;2022-09-09T02:34:01;99937.84;;;6.42;100.00
23643;BME280;11998;55.788;37.572;2022-09-09T02:35:08;99933.47;;;6.42;100.00
23643;BME280;11998;55.788;37.572;2022-09-09T02:36:12;99934.38;;;6.46;100.00
23643;BME280;11998;55.788;37.572;2022-09-09T02:37:15;99943.13;;;6.48;100.00
23643;BME280;11998;55.788;37.572;2022-09-09T02:38:19;99942.25;;;6.51;100.00
23643;BME280;11998;55.788;37.572;2022-09-09T02:39:21;99943.13;;;6.48;100.00
23643;BME280;11998;55.788;37.572;2022-09-09T02:40:22;99938.75;;;6.47;100.00
23643;BME280;11998;55.788;37.572;2022-09-09T02:41:34;99950.16;;;6.49;100.00
23643;BME280;11998;55.788;37.572;2022-09-09T02:42:44;99948.38;;;6.40;100.00
23643;BME280;11998;55.788;37.572;2022-09-09T02:43:46;99954.50;;;6.36;100.00
23643;BME280;11998;55.788;37.572;2022-09-09T02:44:46;99957.13;;;6.35;100.00
23643;BME280;11998;55.788;37.572;2022-09-09T02:47:34;99954.50;;;6.35;100.00
23643;BME280;11998;55.788;37.572;2022-09-09T02:50:02;99964.13;;;6.21;100.00
23643;BME280;11998;55.788;37.572;2022-09-09T02:51:15;99953.59;;;6.21;100.00
23643;BME280;11998;55.788;37.572;2022-09-09T02:52:20;99956.22;;;6.21;100.00
23643;BME280;11998;55.788;37.572;2022-09-09T02:54:38;99958.84;;;6.24;100.00
23643;BME280;11998;55.788;37.572;2022-09-09T02:57:01;99961.44;;;6.10;100.00
23643;BME280;11998;55.788;37.572;2022-09-09T02:58:09;99964.03;;;6.05;100.00
23643;BME280;11998;55.788;37.572;2022-09-09T02:59:11;99963.16;;;6.02;100.00
23643;BME280;11998;55.788;37.572;2022-09-09T03:00:13;99969.28;;;5.99;100.00
23643;BME280;11998;55.788;37.572;2022-09-09T03:01:13;99967.53;;;6.01;100.00
23643;BME280;11998;55.788;37.572;2022-09-09T03:02:14;99968.41;;;5.97;100.00
23643;BME280;11998;55.788;37.572;2022-09-09T03:03:15;99971.00;;;5.94;100.00
23643;BME280;11998;55.788;37.572;2022-09-09T03:04:16;99980.69;;;6.00;100.00
23643;BME280;11998;55.788;37.572;2022-09-09T03:05:17;99972.78;;;6.04;100.00
23643;BME280;11998;55.788;37.572;2022-09-09T03:06:17;99971.03;;;6.06;100.00
23643;BME280;11998;55.788;37.572;2022-09-09T03:07:19;99972.78;;;6.07;100.00
23643;BME280;11998;55.788;37.572;2022-09-09T03:08:19;99976.34;;;6.12;100.00
23643;BME280;11998;55.788;37.572;2022-09-09T03:09:20;99971.09;;;6.12;100.00
23643;BME280;11998;55.788;37.572;2022-09-09T03:10:21;99969.34;;;6.11;100.00
23643;BME280;11998;55.788;37.572;2022-09-09T03:11:21;99972.78;;;6.07;100.00
23643;BME280;11998;55.788;37.572;2022-09-09T03:12:21;99976.31;;;6.06;100.00
23643;BME280;11998;55.788;37.572;2022-09-09T03:13:22;99974.53;;;6.05;100.00
23643;BME280;11998;55.788;37.572;2022-09-09T03:14:22;99974.53;;;6.02;100.00
23643;BME280;11998;55.788;37.572;2022-09-09T03:15:25;99969.28;;;6.02;100.00
23643;BME280;11998;55.788;37.572;2022-09-09T03:16:29;99977.19;;;6.04;100.00
23643;BME280;11998;55.788;37.572;2022-09-09T03:17:30;99979.81;;;6.02;100.00
23643;BME280;11998;55.788;37.572;2022-09-09T03:18:30;99978.06;;;6.04;100.00
23643;BME280;11998;55.788;37.572;2022-09-09T03:19:32;99974.53;;;6.05;100.00
23643;BME280;11998;55.788;37.572;2022-09-09T03:20:34;99979.81;;;6.05;100.00
23643;BME280;11998;55.788;37.572;2022-09-09T03:21:34;99988.63;;;6.10;100.00
23643;BME280;11998;55.788;37.572;2022-09-09T03:22:35;99982.47;;;6.10;100.00
23643;BME280;11998;55.788;37.572;2022-09-09T03:23:36;99982.47;;;6.13;100.00
23643;BME280;11998;55.788;37.572;2022-09-09T03:24:36;99986.00;;;6.12;100.00
23643;BME280;11998;55.788;37.572;2022-09-09T03:25:37;99980.72;;;6.13;100.00
23643;BME280;11998;55.788;37.572;2022-09-09T03:26:38;99978.97;;;6.15;100.00
23643;BME280;11998;55.788;37.572;2022-09-09T03:27:40;99986.00;;;6.18;100.00
23643;BME280;11998;55.788;37.572;2022-09-09T03:28:41;99986.91;;;6.22;100.00
23643;BME280;11998;55.788;37.572;2022-09-09T03:29:42;99987.78;;;6.30;100.00
23643;BME280;11998;55.788;37.572;2022-09-09T03:30:42;99986.03;;;6.30;100.00
23643;BME280;11998;55.788;37.572;2022-09-09T03:31:43;99985.19;;;6.33;100.00
23643;BME280;11998;55.788;37.572;2022-09-09T03:32:43;99988.72;;;6.41;100.00
23643;BME280;11998;55.788;37.572;2022-09-09T03:33:44;99999.28;;;6.50;100.00
23643;BME280;11998;55.788;37.572;2022-09-09T03:34:45;99995.75;;;6.48;100.00
23643;BME280;11998;55.788;37.572;2022-09-09T03:35:47;99989.66;;;6.58;100.00
23643;BME280;11998;55.788;37.572;2022-09-09T03:36:48;99994.91;;;6.66;100.00
23643;BME280;11998;55.788;37.572;2022-09-09T03:37:49;99991.41;;;6.67;100.00
23643;BME280;11998;55.788;37.572;2022-09-09T03:38:49;99990.56;;;6.75;100.00
23643;BME280;11998;55.788;37.572;2022-09-09T03:39:50;99995.81;;;6.78;100.00
23643;BME280;11998;55.788;37.572;2022-09-09T03:40:52;99994.09;;;6.96;100.00
23643;BME280;11998;55.788;37.572;2022-09-09T03:41:57;99989.69;;;7.30;100.00
23643;BME280;11998;55.788;37.572;2022-09-09T03:42:57;99990.56;;;7.58;100.00
23643;BME280;11998;55.788;37.572;2022-09-09T03:43:58;99988.78;;;7.72;100.00
23643;BME280;11998;55.788;37.572;2022-09-09T03:44:58;99989.66;;;7.74;100.00
23643;BME280;11998;55.788;37.572;2022-09-09T03:45:59;99988.75;;;7.78;100.00
23643;BME280;11998;55.788;37.572;2022-09-09T03:47:00;99980.84;;;7.77;100.00
23643;BME280;11998;55.788;37.572;2022-09-09T03:48:01;99982.59;;;7.81;100.00
23643;BME280;11998;55.788;37.572;2022-09-09T03:49:01;99982.59;;;7.78;100.00
23643;BME280;11998;55.788;37.572;2022-09-09T03:50:03;99981.75;;;7.71;100.00
23643;BME280;11998;55.788;37.572;2022-09-09T03:51:04;99980.88;;;7.64;100.00
23643;BME280;11998;55.788;37.572;2022-09-09T03:52:05;99987.94;;;7.53;100.00
23643;BME280;11998;55.788;37.572;2022-09-09T03:53:05;99983.53;;;7.54;100.00
23643;BME280;11998;55.788;37.572;2022-09-09T03:54:07;99987.94;;;7.41;100.00
23643;BME280;11998;55.788;37.572;2022-09-09T03:55:10;99987.06;;;7.38;100.00
23643;BME280;11998;55.788;37.572;2022-09-09T03:56:11;99987.09;;;7.34;100.00
23643;BME280;11998;55.788;37.572;2022-09-09T03:57:11;99990.59;;;7.36;100.00
23643;BME280;11998;55.788;37.572;2022-09-09T03:58:16;99988.81;;;7.29;100.00
23643;BME280;11998;55.788;37.572;2022-09-09T03:59:19;99985.31;;;7.24;100.00
23643;BME280;11998;55.788;37.572;2022-09-09T04:00:21;99983.56;;;7.23;100.00
23643;BME280;11998;55.788;37.572;2022-09-09T04:01:21;99994.13;;;7.23;100.00
23643;BME280;11998;55.788;37.572;2022-09-09T04:02:22;99987.97;;;7.20;100.00
23643;BME280;11998;55.788;37.572;2022-09-09T04:03:23;99995.00;;;7.10;100.00
23643;BME280;11998;55.788;37.572;2022-09-09T04:04:24;99991.44;;;7.06;100.00
23643;BME280;11998;55.788;37.572;2022-09-09T04:05:26;99999.38;;;6.99;100.00
23643;BME280;11998;55.788;37.572;2022-09-09T04:06:27;99994.09;;;6.96;100.00
23643;BME280;11998;55.788;37.572;2022-09-09T04:07:28;100001.13;;;6.97;100.00
23643;BME280;11998;55.788;37.572;2022-09-09T04:08:29;99991.44;;;6.91;100.00
23643;BME280;11998;55.788;37.572;2022-09-09T04:09:31;99995.84;;;6.88;100.00
23643;BME280;11998;55.788;37.572;2022-09-09T04:10:33;100001.13;;;6.85;100.00
23643;BME280;11998;55.788;37.572;2022-09-09T04:11:33;100001.09;;;6.78;100.00
23643;BME280;11998;55.788;37.572;2022-09-09T04:12:34;100004.59;;;6.81;100.00
23643;BME280;11998;55.788;37.572;2022-09-09T04:13:35;100001.06;;;6.63;100.00
23643;BME280;11998;55.788;37.572;2022-09-09T04:14:37;100002.84;;;6.76;100.00
23643;BME280;11998;55.788;37.572;2022-09-09T04:15:38;100004.63;;;6.82;100.00
23643;BME280;11998;55.788;37.572;2022-09-09T04:16:38;100006.31;;;6.69;100.00
23643;BME280;11998;55.788;37.572;2022-09-09T04:17:39;100011.59;;;6.69;100.00
23643;BME280;11998;55.788;37.572;2022-09-09T04:18:40;100006.31;;;6.69;100.00
23643;BME280;11998;55.788;37.572;2022-09-09T04:19:40;100006.31;;;6.66;100.00
23643;BME280;11998;55.788;37.572;2022-09-09T04:20:42;100008.09;;;6.64;100.00
23643;BME280;11998;55.788;37.572;2022-09-09T04:21:43;100003.69;;;6.65;100.00
23643;BME280;11998;55.788;37.572;2022-09-09T04:22:45;100003.69;;;6.68;100.00
23643;BME280;11998;55.788;37.572;2022-09-09T04:23:45;100011.63;;;6.72;100.00
23643;BME280;11998;55.788;37.572;2022-09-09T04:24:46;100008.09;;;6.73;100.00
23643;BME280;11998;55.788;37.572;2022-09-09T04:25:48;100008.09;;;6.76;100.00
23643;BME280;11998;55.788;37.572;2022-09-09T04:26:49;99998.47;;;6.72;100.00
23643;BME280;11998;55.788;37.572;2022-09-09T04:27:56;100010.75;;;6.72;100.00
23643;BME280;11998;55.788;37.572;2022-09-09T04:28:57;100001.06;;;6.66;100.00
23643;BME280;11998;55.788;37.572;2022-09-09T04:29:58;100007.22;;;6.76;100.00
23643;BME280;11998;55.788;37.572;2022-09-09T04:31:21;100002.84;;;6.73;100.00
23643;BME280;11998;55.788;37.572;2022-09-09T04:32:23;100008.09;;;6.64;100.00
23643;BME280;11998;55.788;37.572;2022-09-09T04:33:25;100009.00;;;6.72;100.00
23643;BME280;11998;55.788;37.572;2022-09-09T04:34:26;100006.34;;;6.72;100.00
23643;BME280;11998;55.788;37.572;2022-09-09T04:35:27;100010.75;;;6.80;100.00
23643;BME280;11998;55.788;37.572;2022-09-09T04:36:27;100010.75;;;6.86;100.00
23643;BME280;11998;55.788;37.572;2022-09-09T04:37:28;100001.13;;;6.85;100.00
23643;BME280;11998;55.788;37.572;2022-09-09T04:38:29;100004.63;;;6.90;100.00
23643;BME280;11998;55.788;37.572;2022-09-09T04:39:29;100002.88;;;6.96;100.00
23643;BME280;11998;55.788;37.572;2022-09-09T04:40:31;100001.13;;;6.97;100.00
23643;BME280;11998;55.788;37.572;2022-09-09T04:41:31;100007.28;;;7.00;100.00
23643;BME280;11998;55.788;37.572;2022-09-09T04:42:35;100001.13;;;7.09;100.00
23643;BME280;11998;55.788;37.572;2022-09-09T04:43:37;100009.03;;;7.09;100.00
23643;BME280;11998;55.788;37.572;2022-09-09T04:44:38;100010.78;;;7.18;100.00
23643;BME280;11998;55.788;37.572;2022-09-09T04:45:39;100002.88;;;7.04;100.00
23643;BME280;11998;55.788;37.572;2022-09-09T04:46:40;100007.28;;;7.11;100.00
23643;BME280;11998;55.788;37.572;2022-09-09T04:47:41;100012.53;;;7.06;100.00
23643;BME280;11998;55.788;37.572;2022-09-09T04:48:42;100008.16;;;7.07;100.00
23643;BME280;11998;55.788;37.572;2022-09-09T04:49:43;100009.03;;;7.07;100.00
23643;BME280;11998;55.788;37.572;2022-09-09T04:50:43;100004.63;;;7.06;100.00
23643;BME280;11998;55.788;37.572;2022-09-09T04:51:44;100006.41;;;7.12;100.00
23643;BME280;11998;55.788;37.572;2022-09-09T04:52:46;100008.16;;;7.22;100.00
23643;BME280;11998;55.788;37.572;2022-09-09T04:53:46;100012.56;;;7.32;100.00
23643;BME280;11998;55.788;37.572;2022-09-09T04:54:47;100005.50;;;7.71;100.00
23643;BME280;11998;55.788;37.572;2022-09-09T04:55:48;99999.94;;;8.52;100.00
23643;BME280;11998;55.788;37.572;2022-09-09T04:56:50;99994.69;;;9.65;100.00
23643;BME280;11998;55.788;37.572;2022-09-09T04:57:51;99985.03;;;11.01;100.00
23643;BME280;11998;55.788;37.572;2022-09-09T04:58:51;99972.94;;;12.73;100.00
23643;BME280;11998;55.788;37.572;2022-09-09T04:59:52;99960.53;;;14.43;100.00
23643;BME280;11998;55.788;37.572;2022-09-09T05:00:52;99953.56;;;16.00;100.00
23643;BME280;11998;55.788;37.572;2022-09-09T05:01:53;99943.91;;;17.54;100.00
23643;BME280;11998;55.788;37.572;2022-09-09T05:02:55;99941.03;;;19.14;93.39
23643;BME280;11998;55.788;37.572;2022-09-09T05:03:55;99931.97;;;20.36;73.29
23643;BME280;11998;55.788;37.572;2022-09-09T05:04:56;99927.50;;;21.61;57.29
23643;BME280;11998;55.788;37.572;2022-09-09T05:06:23;99934.34;;;22.68;45.97
23643;BME280;11998;55.788;37.572;2022-09-09T05:07:24;99930.28;;;23.70;42.56
23643;BME280;11998;55.788;37.572;2022-09-09T05:08:26;99929.84;;;24.65;38.74
23643;BME280;11998;55.788;37.572;2022-09-09T05:09:26;99929.75;;;25.51;36.58
23643;BME280;11998;55.788;37.572;2022-09-09T05:10:27;99933.41;;;26.20;33.96
23643;BME280;11998;55.788;37.572;2022-09-09T05:11:30;99927.13;;;26.53;32.79
23643;BME280;11998;55.788;37.572;2022-09-09T05:12:32;99927.91;;;27.32;31.72
23643;BME280;11998;55.788;37.572;2022-09-09T05:13:32;99936.09;;;27.85;30.35
23643;BME280;11998;55.788;37.572;2022-09-09T05:14:33;99928.75;;;28.48;29.47
23643;BME280;11998;55.788;37.572;2022-09-09T05:15:33;99928.72;;;29.19;27.99
23643;BME280;11998;55.788;37.572;2022-09-09T05:16:35;99925.59;;;29.62;27.33
23643;BME280;11998;55.788;37.572;2022-09-09T05:17:36;99932.16;;;29.98;26.14
23643;BME280;11998;55.788;37.572;2022-09-09T05:18:37;99933.22;;;30.44;25.20
23643;BME280;11998;55.788;37.572;2022-09-09T05:19:38;99926.25;;;30.59;25.18
23643;BME280;11998;55.788;37.572;2022-09-09T05:20:39;99926.50;;;31.03;24.65
23643;BME280;11998;55.788;37.572;2022-09-09T05:21:39;99932.75;;;30.11;25.69
23643;BME280;11998;55.788;37.572;2022-09-09T05:22:39;99926.16;;;29.27;25.96
23643;BME280;11998;55.788;37.572;2022-09-09T05:23:40;99925.50;;;30.30;25.06
23643;BME280;11998;55.788;37.572;2022-09-09T05:24:41;99941.03;;;27.91;26.83
23643;BME280;11998;55.788;37.572;2022-09-09T05:25:42;99925.06;;;27.34;27.76
23643;BME280;11998;55.788;37.572;2022-09-09T05:26:42;99933.16;;;28.70;26.85
23643;BME280;11998;55.788;37.572;2022-09-09T05:27:44;99939.22;;;29.33;26.22
23643;BME280;11998;55.788;37.572;2022-09-09T05:28:45;99935.00;;;30.26;25.18
23643;BME280;11998;55.788;37.572;2022-09-09T05:29:46;99936.13;;;31.07;23.72
23643;BME280;11998;55.788;37.572;2022-09-09T05:30:46;99931.72;;;30.13;24.29
23643;BME280;11998;55.788;37.572;2022-09-09T05:31:54;99933.56;;;31.23;23.75
23643;BME280;11998;55.788;37.572;2022-09-09T05:32:58;99930.34;;;31.99;22.76
23643;BME280;11998;55.788;37.572;2022-09-09T05:33:59;99926.19;;;32.65;22.31
23643;BME280;11998;55.788;37.572;2022-09-09T05:34:59;99916.94;;;32.66;21.90
23643;BME280;11998;55.788;37.572;2022-09-09T05:36:04;99922.75;;;32.71;21.69
23643;BME280;11998;55.788;37.572;2022-09-09T05:37:05;99926.06;;;33.17;21.61
23643;BME280;11998;55.788;37.572;2022-09-09T05:38:07;99923.22;;;33.59;20.98
23643;BME280;11998;55.788;37.572;2022-09-09T05:39:08;99929.06;;;32.97;21.10
23643;BME280;11998;55.788;37.572;2022-09-09T05:40:09;99930.44;;;33.60;20.66
23643;BME280;11998;55.788;37.572;2022-09-09T05:41:11;99930.97;;;33.80;20.51
23643;BME280;11998;55.788;37.572;2022-09-09T05:42:12;99923.75;;;34.20;20.23
23643;BME280;11998;55.788;37.572;2022-09-09T05:43:12;99920.19;;;34.74;19.43
23643;BME280;11998;55.788;37.572;2022-09-09T05:44:13;99924.19;;;35.03;19.23
23643;BME280;11998;55.788;37.572;2022-09-09T05:45:14;99921.84;;;34.92;19.28
23643;BME280;11998;55.788;37.572;2022-09-09T05:46:17;99916.72;;;34.72;19.34
23643;BME280;11998;55.788;37.572;2022-09-09T05:47:17;99920.59;;;34.55;19.71
23643;BME280;11998;55.788;37.572;2022-09-09T05:48:18;99925.13;;;33.83;19.93
23643;BME280;11998;55.788;37.572;2022-09-09T05:49:18;99923.78;;;33.95;19.82
23643;BME280;11998;55.788;37.572;2022-09-09T05:50:19;99931.31;;;34.09;19.70
23643;BME280;11998;55.788;37.572;2022-09-09T05:51:25;99920.53;;;34.00;19.80
23643;BME280;11998;55.788;37.572;2022-09-09T05:52:26;99916.09;;;33.16;20.52
23643;BME280;11998;55.788;37.572;2022-09-09T05:53:28;99920.59;;;33.33;20.30
23643;BME280;11998;55.788;37.572;2022-09-09T05:54:32;99918.94;;;32.56;20.86
23643;BME280;11998;55.788;37.572;2022-09-09T05:55:32;99913.16;;;32.67;20.82
23643;BME280;11998;55.788;37.572;2022-09-09T05:56:33;99917.50;;;32.78;20.87
23643;BME280;11998;55.788;37.572;2022-09-09T05:57:34;99916.81;;;33.26;20.33
23643;BME280;11998;55.788;37.572;2022-09-09T05:58:34;99918.69;;;32.75;20.48
23643;BME280;11998;55.788;37.572;2022-09-09T05:59:35;99926.50;;;33.71;20.17
23643;BME280;11998;55.788;37.572;2022-09-09T06:00:35;99925.88;;;32.42;20.61
23643;BME280;11998;55.788;37.572;2022-09-09T06:01:37;99929.06;;;32.29;20.78
23643;BME280;11998;55.788;37.572;2022-09-09T06:02:40;99918.59;;;32.59;20.58
23643;BME280;11998;55.788;37.572;2022-09-09T06:03:42;99937.50;;;31.21;21.29
23643;BME280;11998;55.788;37.572;2022-09-09T06:04:43;99937.66;;;30.92;22.08
23643;BME280;11998;55.788;37.572;2022-09-09T06:05:44;99922.72;;;31.67;21.50
23643;BME280;11998;55.788;37.572;2022-09-09T06:06:44;99935.06;;;30.06;22.88
23643;BME280;11998;55.788;37.572;2022-09-09T06:07:45;99930.44;;;29.39;23.12
23643;BME280;11998;55.788;37.572;2022-09-09T06:08:45;99935.09;;;29.77;23.32
23643;BME280;11998;55.788;37.572;2022-09-09T06:09:46;99937.69;;;28.60;23.21
23643;BME280;11998;55.788;37.572;2022-09-09T06:10:47;99942.34;;;28.69;23.67
23643;BME280;11998;55.788;37.572;2022-09-09T06:11:47;99940.19;;;29.03;23.67
23643;BME280;11998;55.788;37.572;2022-09-09T06:12:48;99942.28;;;27.66;25.05
23643;BME280;11998;55.788;37.572;2022-09-09T06:13:50;99946.03;;;26.88;25.75
23643;BME280;11998;55.788;37.572;2022-09-09T06:14:53;99935.38;;;28.04;25.05
23643;BME280;11998;55.788;37.572;2022-09-09T06:15:54;99939.44;;;27.13;25.22
23643;BME280;11998;55.788;37.572;2022-09-09T06:16:55;99948.38;;;26.93;25.56
23643;BME280;11998;55.788;37.572;2022-09-09T06:17:56;99937.53;;;26.71;25.90